sensor_id;sensor_type;location;lat;lon;timestamp;P1;durP1;ratioP1;P2;durP2;ratioP2
25249;SDS011;13201;51.148;13.738;2023-02-01T00:01:43;4.37;;;1.67;;
25249;SDS011;13201;51.148;13.738;2023-02-01T00:04:09;7.07;;;1.73;;
25249;SDS011;13201;51.148;13.738;2023-02-01T00:06:35;6.23;;;2.20;;
25249;SDS011;13201;51.148;13.738;2023-02-01T00:09:01;4.88;;;1.80;;
25249;SDS011;13201;51.148;13.738;2023-02-01T00:11:27;5.72;;;1.90;;
25249;SDS011;13201;51.148;13.738;2023-02-01T00:13:52;5.20;;;2.13;;
25249;SDS011;13201;51.148;13.738;2023-02-01T00:16:22;2.67;;;1.40;;
25249;SDS011;13201;51.148;13.738;2023-02-01T00:18:50;4.75;;;1.80;;
25249;SDS011;13201;51.148;13.738;2023-02-01T00:21:21;4.15;;;1.40;;
25249;SDS011;13201;51.148;13.738;2023-02-01T00:23:47;4.53;;;1.48;;
25249;SDS011;13201;51.148;13.738;2023-02-01T00:26:20;3.75;;;1.50;;
25249;SDS011;13201;51.148;13.738;2023-02-01T00:31:15;6.77;;;1.67;;
25249;SDS011;13201;51.148;13.738;2023-02-01T00:33:41;5.90;;;1.60;;
25249;SDS011;13201;51.148;13.738;2023-02-01T00:36:07;3.72;;;1.63;;
25249;SDS011;13201;51.148;13.738;2023-02-01T00:38:36;4.72;;;1.52;;
25249;SDS011;13201;51.148;13.738;2023-02-01T00:41:06;6.55;;;1.63;;
25249;SDS011;13201;51.148;13.738;2023-02-01T00:43:37;2.38;;;1.35;;
25249;SDS011;13201;51.148;13.738;2023-02-01T00:46:03;2.17;;;1.15;;
25249;SDS011;13201;51.148;13.738;2023-02-01T00:48:29;5.10;;;1.60;;
25249;SDS011;13201;51.148;13.738;2023-02-01T00:50:58;3.27;;;1.40;;
25249;SDS011;13201;51.148;13.738;2023-02-01T00:53:25;4.32;;;1.90;;
25249;SDS011;13201;51.148;13.738;2023-02-01T00:55:51;6.10;;;1.58;;
25249;SDS011;13201;51.148;13.738;2023-02-01T00:58:17;5.43;;;1.50;;
25249;SDS011;13201;51.148;13.738;2023-02-01T01:00:43;6.05;;;1.90;;
25249;SDS011;13201;51.148;13.738;2023-02-01T01:03:09;8.10;;;2.00;;
25249;SDS011;13201;51.148;13.738;2023-02-01T01:31:02;2.00;;;1.10;;
25249;SDS011;13201;51.148;13.738;2023-02-01T01:33:28;3.63;;;1.48;;
25249;SDS011;13201;51.148;13.738;2023-02-01T01:35:54;6.35;;;1.58;;
25249;SDS011;13201;51.148;13.738;2023-02-01T01:38:20;4.03;;;1.30;;
25249;SDS011;13201;51.148;13.738;2023-02-01T01:40:46;2.95;;;1.30;;
25249;SDS011;13201;51.148;13.738;2023-02-01T01:43:13;3.65;;;1.25;;
25249;SDS011;13201;51.148;13.738;2023-02-01T01:45:40;5.22;;;1.20;;
25249;SDS011;13201;51.148;13.738;2023-02-01T01:50:46;6.07;;;1.65;;
25249;SDS011;13201;51.148;13.738;2023-02-01T01:53:27;4.40;;;1.20;;
25249;SDS011;13201;51.148;13.738;2023-02-01T01:55:59;6.45;;;1.70;;
25249;SDS011;13201;51.148;13.738;2023-02-01T01:58:26;4.68;;;1.35;;
25249;SDS011;13201;51.148;13.738;2023-02-01T02:00:55;4.18;;;1.13;;
25249;SDS011;13201;51.148;13.738;2023-02-01T02:03:23;4.38;;;1.15;;
25249;SDS011;13201;51.148;13.738;2023-02-01T02:05:55;4.90;;;1.58;;
25249;SDS011;13201;51.148;13.738;2023-02-01T02:08:23;4.28;;;1.10;;
25249;SDS011;13201;51.148;13.738;2023-02-01T02:10:51;7.70;;;1.33;;
25249;SDS011;13201;51.148;13.738;2023-02-01T02:13:39;1.73;;;0.90;;
25249;SDS011;13201;51.148;13.738;2023-02-01T02:18:43;3.22;;;1.00;;
25249;SDS011;13201;51.148;13.738;2023-02-01T02:21:23;2.05;;;1.27;;
25249;SDS011;13201;51.148;13.738;2023-02-01T02:24:16;3.83;;;1.05;;
25249;SDS011;13201;51.148;13.738;2023-02-01T02:27:06;3.63;;;0.98;;
25249;SDS011;13201;51.148;13.738;2023-02-01T02:40:57;2.28;;;1.00;;
25249;SDS011;13201;51.148;13.738;2023-02-01T02:43:35;4.80;;;1.40;;
25249;SDS011;13201;51.148;13.738;2023-02-01T02:46:40;4.13;;;1.45;;
25249;SDS011;13201;51.148;13.738;2023-02-01T02:52:14;4.65;;;1.42;;
25249;SDS011;13201;51.148;13.738;2023-02-01T02:55:03;5.85;;;1.55;;
25249;SDS011;13201;51.148;13.738;2023-02-01T02:57:37;2.30;;;1.08;;
25249;SDS011;13201;51.148;13.738;2023-02-01T03:00:29;6.88;;;1.10;;
25249;SDS011;13201;51.148;13.738;2023-02-01T03:03:16;5.57;;;1.20;;
25249;SDS011;13201;51.148;13.738;2023-02-01T03:06:00;4.32;;;1.33;;
25249;SDS011;13201;51.148;13.738;2023-02-01T03:08:29;7.03;;;1.40;;
25249;SDS011;13201;51.148;13.738;2023-02-01T03:11:06;4.80;;;1.02;;
25249;SDS011;13201;51.148;13.738;2023-02-01T03:13:51;5.05;;;1.23;;
25249;SDS011;13201;51.148;13.738;2023-02-01T03:16:24;4.10;;;1.08;;
25249;SDS011;13201;51.148;13.738;2023-02-01T03:18:58;7.03;;;1.77;;
25249;SDS011;13201;51.148;13.738;2023-02-01T03:21:30;3.53;;;1.20;;
25249;SDS011;13201;51.148;13.738;2023-02-01T03:24:08;6.82;;;1.40;;
25249;SDS011;13201;51.148;13.738;2023-02-01T03:26:47;5.93;;;1.23;;
25249;SDS011;13201;51.148;13.738;2023-02-01T03:29:24;6.38;;;1.30;;
25249;SDS011;13201;51.148;13.738;2023-02-01T03:31:56;7.65;;;1.48;;
25249;SDS011;13201;51.148;13.738;2023-02-01T03:34:21;5.53;;;1.48;;
25249;SDS011;13201;51.148;13.738;2023-02-01T03:36:52;7.57;;;1.27;;
25249;SDS011;13201;51.148;13.738;2023-02-01T03:42:53;3.88;;;1.65;;
25249;SDS011;13201;51.148;13.738;2023-02-01T03:47:33;5.45;;;1.67;;
25249;SDS011;13201;51.148;13.738;2023-02-01T03:50:04;6.00;;;1.50;;
25249;SDS011;13201;51.148;13.738;2023-02-01T03:52:38;8.30;;;1.58;;
25249;SDS011;13201;51.148;13.738;2023-02-01T03:55:10;5.97;;;1.30;;
25249;SDS011;13201;51.148;13.738;2023-02-01T03:57:44;2.90;;;1.00;;
25249;SDS011;13201;51.148;13.738;2023-02-01T04:00:17;3.92;;;1.10;;
25249;SDS011;13201;51.148;13.738;2023-02-01T04:02:47;7.30;;;1.45;;
25249;SDS011;13201;51.148;13.738;2023-02-01T04:05:13;3.97;;;1.40;;
25249;SDS011;13201;51.148;13.738;2023-02-01T04:07:39;4.60;;;1.52;;
25249;SDS011;13201;51.148;13.738;2023-02-01T04:10:05;5.90;;;1.73;;
25249;SDS011;13201;51.148;13.738;2023-02-01T04:12:31;3.03;;;1.23;;
25249;SDS011;13201;51.148;13.738;2023-02-01T04:14:57;4.18;;;1.20;;
25249;SDS011;13201;51.148;13.738;2023-02-01T04:17:23;5.68;;;1.48;;
25249;SDS011;13201;51.148;13.738;2023-02-01T04:19:49;4.00;;;1.60;;
25249;SDS011;13201;51.148;13.738;2023-02-01T04:22:14;8.20;;;1.40;;
25249;SDS011;13201;51.148;13.738;2023-02-01T04:24:40;5.40;;;1.52;;
25249;SDS011;13201;51.148;13.738;2023-02-01T04:27:06;5.35;;;1.02;;
25249;SDS011;13201;51.148;13.738;2023-02-01T04:29:31;7.45;;;1.42;;
25249;SDS011;13201;51.148;13.738;2023-02-01T04:31:58;3.00;;;0.98;;
25249;SDS011;13201;51.148;13.738;2023-02-01T04:34:23;3.78;;;1.30;;
25249;SDS011;13201;51.148;13.738;2023-02-01T04:36:50;5.10;;;1.33;;
25249;SDS011;13201;51.148;13.738;2023-02-01T04:39:16;6.03;;;1.45;;
25249;SDS011;13201;51.148;13.738;2023-02-01T04:41:42;6.07;;;1.33;;
25249;SDS011;13201;51.148;13.738;2023-02-01T04:44:17;3.35;;;1.10;;
25249;SDS011;13201;51.148;13.738;2023-02-01T04:46:44;5.60;;;1.30;;
25249;SDS011;13201;51.148;13.738;2023-02-01T04:49:11;6.03;;;1.38;;
25249;SDS011;13201;51.148;13.738;2023-02-01T04:51:38;6.45;;;1.63;;
25249;SDS011;13201;51.148;13.738;2023-02-01T04:54:04;6.67;;;1.67;;
25249;SDS011;13201;51.148;13.738;2023-02-01T04:56:30;6.90;;;1.20;;
25249;SDS011;13201;51.148;13.738;2023-02-01T04:58:56;4.13;;;0.97;;
25249;SDS011;13201;51.148;13.738;2023-02-01T05:01:22;5.82;;;1.30;;
25249;SDS011;13201;51.148;13.738;2023-02-01T05:03:49;6.93;;;1.38;;
25249;SDS011;13201;51.148;13.738;2023-02-01T05:06:16;3.53;;;1.20;;
25249;SDS011;13201;51.148;13.738;2023-02-01T05:08:42;7.35;;;1.52;;
25249;SDS011;13201;51.148;13.738;2023-02-01T05:11:07;7.93;;;1.30;;
25249;SDS011;13201;51.148;13.738;2023-02-01T05:13:53;4.80;;;1.40;;
25249;SDS011;13201;51.148;13.738;2023-02-01T05:16:18;6.88;;;1.42;;
25249;SDS011;13201;51.148;13.738;2023-02-01T05:18:44;4.30;;;1.45;;
25249;SDS011;13201;51.148;13.738;2023-02-01T05:21:10;7.65;;;1.55;;
25249;SDS011;13201;51.148;13.738;2023-02-01T05:23:36;7.88;;;1.35;;
25249;SDS011;13201;51.148;13.738;2023-02-01T05:26:22;4.50;;;1.30;;
25249;SDS011;13201;51.148;13.738;2023-02-01T05:28:47;5.70;;;1.20;;
25249;SDS011;13201;51.148;13.738;2023-02-01T05:31:13;8.25;;;1.52;;
25249;SDS011;13201;51.148;13.738;2023-02-01T05:33:39;5.00;;;1.30;;
25249;SDS011;13201;51.148;13.738;2023-02-01T05:36:04;6.45;;;1.48;;
25249;SDS011;13201;51.148;13.738;2023-02-01T05:38:30;4.43;;;1.25;;
25249;SDS011;13201;51.148;13.738;2023-02-01T05:40:57;8.85;;;1.30;;
25249;SDS011;13201;51.148;13.738;2023-02-01T05:43:22;5.35;;;1.45;;
25249;SDS011;13201;51.148;13.738;2023-02-01T05:45:48;5.28;;;1.58;;
25249;SDS011;13201;51.148;13.738;2023-02-01T05:48:14;5.32;;;1.35;;
25249;SDS011;13201;51.148;13.738;2023-02-01T05:50:39;9.85;;;1.55;;
25249;SDS011;13201;51.148;13.738;2023-02-01T05:53:05;7.78;;;1.65;;
25249;SDS011;13201;51.148;13.738;2023-02-01T05:55:31;6.13;;;1.38;;
25249;SDS011;13201;51.148;13.738;2023-02-01T05:57:57;5.77;;;1.07;;
25249;SDS011;13201;51.148;13.738;2023-02-01T06:00:23;10.95;;;1.70;;
25249;SDS011;13201;51.148;13.738;2023-02-01T06:02:49;5.70;;;1.42;;
25249;SDS011;13201;51.148;13.738;2023-02-01T06:05:14;9.77;;;1.35;;
25249;SDS011;13201;51.148;13.738;2023-02-01T06:07:40;4.07;;;0.95;;
25249;SDS011;13201;51.148;13.738;2023-02-01T06:10:06;9.18;;;1.45;;
25249;SDS011;13201;51.148;13.738;2023-02-01T06:12:32;9.52;;;1.48;;
25249;SDS011;13201;51.148;13.738;2023-02-01T06:14:58;8.30;;;2.13;;
25249;SDS011;13201;51.148;13.738;2023-02-01T06:17:24;9.60;;;1.80;;
25249;SDS011;13201;51.148;13.738;2023-02-01T06:19:49;8.68;;;1.38;;
25249;SDS011;13201;51.148;13.738;2023-02-01T06:22:15;6.15;;;1.75;;
25249;SDS011;13201;51.148;13.738;2023-02-01T06:24:41;3.78;;;1.00;;
25249;SDS011;13201;51.148;13.738;2023-02-01T06:27:07;3.20;;;1.30;;
25249;SDS011;13201;51.148;13.738;2023-02-01T06:31:59;7.43;;;1.80;;
25249;SDS011;13201;51.148;13.738;2023-02-01T06:34:25;4.32;;;1.20;;
25249;SDS011;13201;51.148;13.738;2023-02-01T06:36:51;6.68;;;1.20;;
25249;SDS011;13201;51.148;13.738;2023-02-01T06:39:17;4.50;;;1.13;;
25249;SDS011;13201;51.148;13.738;2023-02-01T06:41:45;3.13;;;1.10;;
25249;SDS011;13201;51.148;13.738;2023-02-01T06:44:12;5.43;;;1.58;;
25249;SDS011;13201;51.148;13.738;2023-02-01T06:46:38;4.82;;;1.25;;
25249;SDS011;13201;51.148;13.738;2023-02-01T06:49:03;8.45;;;1.23;;
25249;SDS011;13201;51.148;13.738;2023-02-01T06:51:29;4.60;;;1.33;;
25249;SDS011;13201;51.148;13.738;2023-02-01T06:53:55;5.93;;;1.50;;
25249;SDS011;13201;51.148;13.738;2023-02-01T06:56:21;4.65;;;1.27;;
25249;SDS011;13201;51.148;13.738;2023-02-01T06:58:47;8.95;;;1.80;;
25249;SDS011;13201;51.148;13.738;2023-02-01T07:01:13;6.28;;;1.98;;
25249;SDS011;13201;51.148;13.738;2023-02-01T07:03:40;4.85;;;1.10;;
25249;SDS011;13201;51.148;13.738;2023-02-01T07:06:06;4.38;;;1.77;;
25249;SDS011;13201;51.148;13.738;2023-02-01T07:08:33;6.20;;;1.50;;
25249;SDS011;13201;51.148;13.738;2023-02-01T07:11:01;6.78;;;1.25;;
25249;SDS011;13201;51.148;13.738;2023-02-01T07:13:31;7.03;;;1.42;;
25249;SDS011;13201;51.148;13.738;2023-02-01T07:15:57;6.30;;;1.50;;
25249;SDS011;13201;51.148;13.738;2023-02-01T07:18:28;4.53;;;1.60;;
25249;SDS011;13201;51.148;13.738;2023-02-01T07:20:54;3.72;;;1.45;;
25249;SDS011;13201;51.148;13.738;2023-02-01T07:23:20;9.00;;;1.27;;
25249;SDS011;13201;51.148;13.738;2023-02-01T07:25:47;4.57;;;1.70;;
25249;SDS011;13201;51.148;13.738;2023-02-01T07:28:13;5.00;;;1.53;;
25249;SDS011;13201;51.148;13.738;2023-02-01T07:30:38;2.63;;;1.02;;
25249;SDS011;13201;51.148;13.738;2023-02-01T07:33:04;6.15;;;1.58;;
25249;SDS011;13201;51.148;13.738;2023-02-01T07:35:31;7.70;;;1.85;;
25249;SDS011;13201;51.148;13.738;2023-02-01T07:37:57;6.88;;;1.67;;
25249;SDS011;13201;51.148;13.738;2023-02-01T07:40:24;4.22;;;1.15;;
25249;SDS011;13201;51.148;13.738;2023-02-01T07:42:55;5.28;;;1.38;;
25249;SDS011;13201;51.148;13.738;2023-02-01T07:45:21;5.85;;;1.40;;
25249;SDS011;13201;51.148;13.738;2023-02-01T07:47:48;6.47;;;1.40;;
25249;SDS011;13201;51.148;13.738;2023-02-01T07:50:14;6.33;;;1.47;;
25249;SDS011;13201;51.148;13.738;2023-02-01T07:52:40;2.57;;;1.10;;
25249;SDS011;13201;51.148;13.738;2023-02-01T07:55:06;5.50;;;1.48;;
25249;SDS011;13201;51.148;13.738;2023-02-01T07:57:32;8.57;;;1.65;;
25249;SDS011;13201;51.148;13.738;2023-02-01T07:59:58;5.05;;;1.80;;
25249;SDS011;13201;51.148;13.738;2023-02-01T08:02:42;5.57;;;1.33;;
25249;SDS011;13201;51.148;13.738;2023-02-01T08:05:07;7.32;;;1.30;;
25249;SDS011;13201;51.148;13.738;2023-02-01T08:07:33;6.57;;;1.50;;
25249;SDS011;13201;51.148;13.738;2023-02-01T08:09:59;4.70;;;1.55;;
25249;SDS011;13201;51.148;13.738;2023-02-01T08:12:25;4.10;;;1.38;;
25249;SDS011;13201;51.148;13.738;2023-02-01T08:14:52;8.63;;;1.15;;
25249;SDS011;13201;51.148;13.738;2023-02-01T08:17:18;7.85;;;1.23;;
25249;SDS011;13201;51.148;13.738;2023-02-01T08:19:44;3.83;;;1.27;;
25249;SDS011;13201;51.148;13.738;2023-02-01T08:22:10;7.70;;;1.50;;
25249;SDS011;13201;51.148;13.738;2023-02-01T08:24:36;8.30;;;1.60;;
25249;SDS011;13201;51.148;13.738;2023-02-01T08:27:05;5.60;;;1.52;;
25249;SDS011;13201;51.148;13.738;2023-02-01T08:29:31;7.85;;;1.95;;
25249;SDS011;13201;51.148;13.738;2023-02-01T08:31:57;5.75;;;1.70;;
25249;SDS011;13201;51.148;13.738;2023-02-01T08:34:23;5.68;;;1.75;;
25249;SDS011;13201;51.148;13.738;2023-02-01T08:36:49;6.95;;;1.58;;
25249;SDS011;13201;51.148;13.738;2023-02-01T08:39:16;7.68;;;1.67;;
25249;SDS011;13201;51.148;13.738;2023-02-01T08:41:42;9.90;;;1.52;;
25249;SDS011;13201;51.148;13.738;2023-02-01T08:44:28;8.93;;;1.60;;
25249;SDS011;13201;51.148;13.738;2023-02-01T08:46:53;3.22;;;1.15;;
25249;SDS011;13201;51.148;13.738;2023-02-01T08:49:19;8.32;;;1.85;;
25249;SDS011;13201;51.148;13.738;2023-02-01T08:51:45;7.63;;;1.98;;
25249;SDS011;13201;51.148;13.738;2023-02-01T08:54:10;8.80;;;1.80;;
25249;SDS011;13201;51.148;13.738;2023-02-01T08:56:36;4.22;;;1.50;;
25249;SDS011;13201;51.148;13.738;2023-02-01T08:59:02;2.88;;;1.40;;
25249;SDS011;13201;51.148;13.738;2023-02-01T09:01:27;8.68;;;1.40;;
25249;SDS011;13201;51.148;13.738;2023-02-01T09:03:53;2.95;;;1.33;;
25249;SDS011;13201;51.148;13.738;2023-02-01T09:06:19;6.40;;;1.58;;
25249;SDS011;13201;51.148;13.738;2023-02-01T09:08:44;5.72;;;1.85;;
25249;SDS011;13201;51.148;13.738;2023-02-01T09:11:11;4.75;;;1.73;;
25249;SDS011;13201;51.148;13.738;2023-02-01T09:13:42;5.43;;;1.23;;
25249;SDS011;13201;51.148;13.738;2023-02-01T09:16:08;4.13;;;1.38;;
25249;SDS011;13201;51.148;13.738;2023-02-01T09:18:34;5.38;;;1.85;;
25249;SDS011;13201;51.148;13.738;2023-02-01T09:21:03;3.67;;;1.30;;
25249;SDS011;13201;51.148;13.738;2023-02-01T09:23:30;8.07;;;1.45;;
25249;SDS011;13201;51.148;13.738;2023-02-01T09:26:00;3.60;;;1.05;;
25249;SDS011;13201;51.148;13.738;2023-02-01T09:28:26;5.93;;;1.20;;
25249;SDS011;13201;51.148;13.738;2023-02-01T09:30:58;6.07;;;1.45;;
25249;SDS011;13201;51.148;13.738;2023-02-01T09:33:25;4.60;;;1.42;;
25249;SDS011;13201;51.148;13.738;2023-02-01T09:38:21;5.18;;;1.38;;
25249;SDS011;13201;51.148;13.738;2023-02-01T09:40:47;7.55;;;1.38;;
25249;SDS011;13201;51.148;13.738;2023-02-01T09:48:59;5.97;;;1.27;;
25249;SDS011;13201;51.148;13.738;2023-02-01T09:51:34;5.43;;;1.17;;
25249;SDS011;13201;51.148;13.738;2023-02-01T09:54:04;3.72;;;1.42;;
25249;SDS011;13201;51.148;13.738;2023-02-01T09:56:35;4.97;;;1.20;;
25249;SDS011;13201;51.148;13.738;2023-02-01T10:01:59;1.80;;;0.90;;
25249;SDS011;13201;51.148;13.738;2023-02-01T10:04:26;2.88;;;1.17;;
25249;SDS011;13201;51.148;13.738;2023-02-01T10:09:50;2.97;;;0.88;;
25249;SDS011;13201;51.148;13.738;2023-02-01T10:18:12;2.80;;;1.10;;
25249;SDS011;13201;51.148;13.738;2023-02-01T10:26:37;2.65;;;0.95;;
25249;SDS011;13201;51.148;13.738;2023-02-01T10:29:14;5.22;;;1.30;;
25249;SDS011;13201;51.148;13.738;2023-02-01T10:31:43;3.10;;;1.10;;
25249;SDS011;13201;51.148;13.738;2023-02-01T10:36:41;3.53;;;1.00;;
25249;SDS011;13201;51.148;13.738;2023-02-01T10:39:26;4.65;;;1.52;;
25249;SDS011;13201;51.148;13.738;2023-02-01T10:41:52;2.30;;;0.93;;
25249;SDS011;13201;51.148;13.738;2023-02-01T10:44:22;4.00;;;1.20;;
25249;SDS011;13201;51.148;13.738;2023-02-01T10:46:51;2.33;;;1.20;;
25249;SDS011;13201;51.148;13.738;2023-02-01T10:49:18;4.20;;;1.07;;
25249;SDS011;13201;51.148;13.738;2023-02-01T10:51:58;1.95;;;1.10;;
25249;SDS011;13201;51.148;13.738;2023-02-01T10:54:35;3.23;;;1.17;;
25249;SDS011;13201;51.148;13.738;2023-02-01T10:57:26;5.72;;;1.30;;
25249;SDS011;13201;51.148;13.738;2023-02-01T10:59:53;6.60;;;1.30;;
25249;SDS011;13201;51.148;13.738;2023-02-01T11:02:27;2.60;;;1.20;;
25249;SDS011;13201;51.148;13.738;2023-02-01T11:05:07;4.22;;;1.13;;
25249;SDS011;13201;51.148;13.738;2023-02-01T11:07:35;3.67;;;1.60;;
25249;SDS011;13201;51.148;13.738;2023-02-01T11:10:02;7.78;;;1.35;;
25249;SDS011;13201;51.148;13.738;2023-02-01T11:12:33;2.40;;;1.27;;
25249;SDS011;13201;51.148;13.738;2023-02-01T11:15:20;5.63;;;1.25;;
25249;SDS011;13201;51.148;13.738;2023-02-01T11:17:48;3.05;;;1.38;;
25249;SDS011;13201;51.148;13.738;2023-02-01T11:22:57;13.10;;;2.05;;
25249;SDS011;13201;51.148;13.738;2023-02-01T11:25:23;5.28;;;1.30;;
25249;SDS011;13201;51.148;13.738;2023-02-01T11:27:50;4.47;;;1.27;;
25249;SDS011;13201;51.148;13.738;2023-02-01T11:30:19;4.82;;;1.13;;
25249;SDS011;13201;51.148;13.738;2023-02-01T11:32:53;3.75;;;1.13;;
25249;SDS011;13201;51.148;13.738;2023-02-01T11:35:19;3.95;;;1.40;;
25249;SDS011;13201;51.148;13.738;2023-02-01T11:37:50;3.78;;;1.60;;
25249;SDS011;13201;51.148;13.738;2023-02-01T11:45:53;5.13;;;1.10;;
25249;SDS011;13201;51.148;13.738;2023-02-01T11:48:23;4.55;;;1.42;;
25249;SDS011;13201;51.148;13.738;2023-02-01T11:56:15;5.25;;;1.55;;
25249;SDS011;13201;51.148;13.738;2023-02-01T11:58:53;6.18;;;1.60;;
25249;SDS011;13201;51.148;13.738;2023-02-01T12:04:15;2.88;;;1.30;;
25249;SDS011;13201;51.148;13.738;2023-02-01T12:12:28;2.40;;;1.25;;
25249;SDS011;13201;51.148;13.738;2023-02-01T12:15:12;6.15;;;1.23;;
25249;SDS011;13201;51.148;13.738;2023-02-01T12:18:02;3.45;;;1.65;;
25249;SDS011;13201;51.148;13.738;2023-02-01T12:20:58;3.17;;;1.17;;
25249;SDS011;13201;51.148;13.738;2023-02-01T12:24:08;4.75;;;1.17;;
25249;SDS011;13201;51.148;13.738;2023-02-01T12:27:03;6.32;;;1.45;;
25249;SDS011;13201;51.148;13.738;2023-02-01T12:42:43;4.65;;;1.10;;
25249;SDS011;13201;51.148;13.738;2023-02-01T12:47:52;6.63;;;1.45;;
25249;SDS011;13201;51.148;13.738;2023-02-01T12:52:51;4.32;;;1.65;;
25249;SDS011;13201;51.148;13.738;2023-02-01T12:57:50;2.08;;;1.13;;
25249;SDS011;13201;51.148;13.738;2023-02-01T13:00:36;5.57;;;1.30;;
25249;SDS011;13201;51.148;13.738;2023-02-01T13:08:45;2.35;;;1.10;;
25249;SDS011;13201;51.148;13.738;2023-02-01T13:11:20;3.90;;;1.20;;
25249;SDS011;13201;51.148;13.738;2023-02-01T13:14:02;2.22;;;0.98;;
25249;SDS011;13201;51.148;13.738;2023-02-01T13:16:37;6.32;;;1.40;;
25249;SDS011;13201;51.148;13.738;2023-02-01T13:21:53;8.55;;;1.63;;
25249;SDS011;13201;51.148;13.738;2023-02-01T13:24:33;7.72;;;1.30;;
25249;SDS011;13201;51.148;13.738;2023-02-01T13:27:14;6.25;;;1.25;;
25249;SDS011;13201;51.148;13.738;2023-02-01T13:29:45;4.45;;;1.55;;
25249;SDS011;13201;51.148;13.738;2023-02-01T13:32:29;3.58;;;1.15;;
25249;SDS011;13201;51.148;13.738;2023-02-01T13:40:41;2.20;;;1.00;;
25249;SDS011;13201;51.148;13.738;2023-02-01T13:45:50;6.93;;;1.30;;
25249;SDS011;13201;51.148;13.738;2023-02-01T13:50:54;4.80;;;1.40;;
25249;SDS011;13201;51.148;13.738;2023-02-01T13:53:27;2.83;;;1.00;;
25249;SDS011;13201;51.148;13.738;2023-02-01T13:56:00;4.40;;;1.00;;
25249;SDS011;13201;51.148;13.738;2023-02-01T13:58:31;5.57;;;1.58;;
25249;SDS011;13201;51.148;13.738;2023-02-01T14:03:56;7.43;;;1.30;;
25249;SDS011;13201;51.148;13.738;2023-02-01T14:09:09;4.07;;;1.05;;
25249;SDS011;13201;51.148;13.738;2023-02-01T14:11:38;5.05;;;1.65;;
25249;SDS011;13201;51.148;13.738;2023-02-01T14:16:57;4.32;;;1.25;;
25249;SDS011;13201;51.148;13.738;2023-02-01T14:19:27;4.30;;;1.00;;
25249;SDS011;13201;51.148;13.738;2023-02-01T14:21:55;5.20;;;1.40;;
25249;SDS011;13201;51.148;13.738;2023-02-01T14:26:54;3.97;;;0.93;;
25249;SDS011;13201;51.148;13.738;2023-02-01T14:29:24;6.57;;;1.55;;
25249;SDS011;13201;51.148;13.738;2023-02-01T14:32:05;5.82;;;1.35;;
25249;SDS011;13201;51.148;13.738;2023-02-01T14:42:16;2.42;;;1.20;;
25249;SDS011;13201;51.148;13.738;2023-02-01T14:44:49;4.93;;;1.10;;
25249;SDS011;13201;51.148;13.738;2023-02-01T14:49:55;6.25;;;1.30;;
25249;SDS011;13201;51.148;13.738;2023-02-01T14:52:58;3.40;;;1.15;;
25249;SDS011;13201;51.148;13.738;2023-02-01T15:01:21;4.20;;;1.30;;
25249;SDS011;13201;51.148;13.738;2023-02-01T15:09:16;6.30;;;1.35;;
25249;SDS011;13201;51.148;13.738;2023-02-01T15:14:33;4.97;;;1.38;;
25249;SDS011;13201;51.148;13.738;2023-02-01T15:17:02;5.97;;;1.67;;
25249;SDS011;13201;51.148;13.738;2023-02-01T15:19:41;6.63;;;1.80;;
25249;SDS011;13201;51.148;13.738;2023-02-01T15:22:25;4.97;;;1.20;;
25249;SDS011;13201;51.148;13.738;2023-02-01T15:24:55;2.85;;;1.30;;
25249;SDS011;13201;51.148;13.738;2023-02-01T15:27:23;3.35;;;1.13;;
25249;SDS011;13201;51.148;13.738;2023-02-01T15:29:49;3.35;;;1.65;;
25249;SDS011;13201;51.148;13.738;2023-02-01T15:32:32;6.40;;;1.13;;
25249;SDS011;13201;51.148;13.738;2023-02-01T15:35:05;5.40;;;1.38;;
25249;SDS011;13201;51.148;13.738;2023-02-01T15:37:51;2.92;;;0.93;;
25249;SDS011;13201;51.148;13.738;2023-02-01T15:40:20;6.93;;;1.77;;
25249;SDS011;13201;51.148;13.738;2023-02-01T15:42:53;5.93;;;1.58;;
25249;SDS011;13201;51.148;13.738;2023-02-01T15:45:21;5.75;;;1.65;;
25249;SDS011;13201;51.148;13.738;2023-02-01T15:47:51;2.72;;;1.33;;
25249;SDS011;13201;51.148;13.738;2023-02-01T15:50:19;7.10;;;1.60;;
25249;SDS011;13201;51.148;13.738;2023-02-01T15:52:49;5.20;;;1.40;;
25249;SDS011;13201;51.148;13.738;2023-02-01T15:55:18;4.38;;;1.65;;
25249;SDS011;13201;51.148;13.738;2023-02-01T15:57:47;3.47;;;1.23;;
25249;SDS011;13201;51.148;13.738;2023-02-01T16:13:10;3.30;;;1.25;;
25249;SDS011;13201;51.148;13.738;2023-02-01T16:15:36;5.82;;;1.40;;
25249;SDS011;13201;51.148;13.738;2023-02-01T16:18:02;5.30;;;1.58;;
25249;SDS011;13201;51.148;13.738;2023-02-01T16:20:29;5.03;;;1.83;;
25249;SDS011;13201;51.148;13.738;2023-02-01T16:22:55;3.30;;;1.20;;
25249;SDS011;13201;51.148;13.738;2023-02-01T16:25:20;6.30;;;1.70;;
25249;SDS011;13201;51.148;13.738;2023-02-01T16:27:46;5.32;;;1.70;;
25249;SDS011;13201;51.148;13.738;2023-02-01T16:30:12;2.90;;;1.25;;
25249;SDS011;13201;51.148;13.738;2023-02-01T16:32:38;4.40;;;1.25;;
25249;SDS011;13201;51.148;13.738;2023-02-01T16:35:04;4.97;;;1.60;;
25249;SDS011;13201;51.148;13.738;2023-02-01T16:37:47;5.28;;;1.30;;
25249;SDS011;13201;51.148;13.738;2023-02-01T16:40:14;3.45;;;1.48;;
25249;SDS011;13201;51.148;13.738;2023-02-01T16:42:41;4.60;;;1.60;;
25249;SDS011;13201;51.148;13.738;2023-02-01T16:45:07;4.18;;;1.50;;
25249;SDS011;13201;51.148;13.738;2023-02-01T16:47:33;3.10;;;1.63;;
25249;SDS011;13201;51.148;13.738;2023-02-01T16:50:01;3.47;;;1.77;;
25249;SDS011;13201;51.148;13.738;2023-02-01T16:52:27;6.25;;;1.45;;
25249;SDS011;13201;51.148;13.738;2023-02-01T16:54:52;3.08;;;1.20;;
25249;SDS011;13201;51.148;13.738;2023-02-01T16:57:19;5.25;;;1.48;;
25249;SDS011;13201;51.148;13.738;2023-02-01T16:59:48;4.93;;;1.50;;
25249;SDS011;13201;51.148;13.738;2023-02-01T17:02:15;0.82;;;0.43;;
25249;SDS011;13201;51.148;13.738;2023-02-01T17:04:44;1.05;;;0.20;;
25249;SDS011;13201;51.148;13.738;2023-02-01T17:07:16;0.22;;;0.20;;
25249;SDS011;13201;51.148;13.738;2023-02-01T17:09:43;1.45;;;0.30;;
25249;SDS011;13201;51.148;13.738;2023-02-01T17:14:55;0.90;;;0.20;;
25249;SDS011;13201;51.148;13.738;2023-02-01T17:19:50;1.92;;;0.20;;
25249;SDS011;13201;51.148;13.738;2023-02-01T17:22:18;0.40;;;0.20;;
25249;SDS011;13201;51.148;13.738;2023-02-01T17:24:45;0.22;;;0.20;;
25249;SDS011;13201;51.148;13.738;2023-02-01T17:27:11;0.37;;;0.20;;
25249;SDS011;13201;51.148;13.738;2023-02-01T17:29:37;0.45;;;0.22;;
25249;SDS011;13201;51.148;13.738;2023-02-01T17:32:02;0.20;;;0.10;;
25249;SDS011;13201;51.148;13.738;2023-02-01T17:34:29;2.22;;;0.65;;
25249;SDS011;13201;51.148;13.738;2023-02-01T17:36:55;0.95;;;0.35;;
25249;SDS011;13201;51.148;13.738;2023-02-01T17:39:20;0.20;;;0.17;;
25249;SDS011;13201;51.148;13.738;2023-02-01T17:42:08;0.82;;;0.45;;
25249;SDS011;13201;51.148;13.738;2023-02-01T17:44:35;0.55;;;0.35;;
25249;SDS011;13201;51.148;13.738;2023-02-01T17:47:01;1.23;;;0.63;;
25249;SDS011;13201;51.148;13.738;2023-02-01T17:49:27;0.35;;;0.20;;
25249;SDS011;13201;51.148;13.738;2023-02-01T17:51:53;0.50;;;0.35;;
25249;SDS011;13201;51.148;13.738;2023-02-01T17:54:19;0.82;;;0.38;;
25249;SDS011;13201;51.148;13.738;2023-02-01T17:56:45;1.27;;;0.30;;
25249;SDS011;13201;51.148;13.738;2023-02-01T17:59:14;0.68;;;0.22;;
25249;SDS011;13201;51.148;13.738;2023-02-01T18:01:40;0.88;;;0.32;;
25249;SDS011;13201;51.148;13.738;2023-02-01T18:04:12;0.28;;;0.17;;
25249;SDS011;13201;51.148;13.738;2023-02-01T18:06:42;0.30;;;0.10;;
25249;SDS011;13201;51.148;13.738;2023-02-01T18:09:09;0.57;;;0.30;;